createdAt,value
2023-08-21T00:01:54.910Z,81.85
2023-08-21T00:05:57.583Z,81.90
2023-08-21T00:10:00.288Z,82.12
2023-08-21T00:14:04.333Z,81.65
2023-08-21T00:18:07.482Z,81.59
2023-08-21T00:22:10.180Z,80.76
2023-08-21T00:26:12.859Z,80.87
2023-08-21T00:30:16.978Z,81.27
2023-08-21T00:34:19.668Z,82.76
2023-08-21T00:38:22.340Z,85.86
2023-08-21T00:42:25.088Z,86.81
2023-08-21T00:46:29.229Z,87.29
2023-08-21T00:50:31.954Z,88.05
2023-08-21T00:54:34.768Z,88.22
2023-08-21T00:58:37.914Z,87.28
2023-08-21T01:02:45.610Z,85.59
2023-08-21T01:06:50.129Z,86.45
2023-08-21T01:10:56.905Z,86.75
2023-08-21T01:15:02.601Z,84.33
2023-08-21T01:19:12.411Z,83.96
2023-08-21T01:23:30.338Z,85.00
2023-08-21T01:27:33.749Z,84.95
2023-08-21T01:31:40.153Z,84.97
2023-08-21T01:35:43.156Z,85.25
2023-08-21T01:39:47.158Z,85.53
2023-08-21T01:43:50.643Z,85.55
2023-08-21T01:47:53.394Z,85.75
2023-08-21T01:51:56.093Z,85.67
2023-08-21T01:56:00.157Z,85.38
2023-08-21T02:00:04.069Z,86.58
2023-08-21T02:04:06.792Z,87.97
2023-08-21T02:08:12.176Z,88.08
2023-08-21T02:12:16.176Z,88.41
2023-08-21T02:16:18.808Z,89.40
2023-08-21T02:20:21.497Z,89.72
2023-08-21T02:24:24.266Z,89.63
2023-08-21T02:28:28.503Z,89.85
2023-08-21T02:32:31.159Z,90.30
2023-08-21T02:36:34.899Z,90.78
2023-08-21T02:40:37.602Z,90.51
2023-08-21T02:44:41.782Z,92.89
2023-08-21T02:48:44.467Z,92.56
2023-08-21T02:52:47.125Z,91.90
2023-08-21T02:56:50.255Z,91.99
2023-08-21T03:00:54.313Z,92.03
2023-08-21T03:04:57.065Z,92.30
2023-08-21T03:08:59.744Z,94.06
2023-08-21T03:13:02.475Z,94.07
2023-08-21T03:17:06.826Z,93.80
2023-08-21T03:21:09.494Z,93.27
2023-08-21T03:25:12.444Z,92.59
2023-08-21T03:29:15.125Z,92.13
2023-08-21T03:33:19.202Z,92.32
2023-08-21T03:37:22.012Z,92.68
2023-08-21T03:41:24.787Z,93.84
2023-08-21T03:45:27.443Z,96.28
2023-08-21T03:49:31.421Z,95.73
2023-08-21T03:53:34.258Z,94.45
2023-08-21T03:57:36.898Z,95.15
2023-08-21T04:01:40.266Z,96.54
2023-08-21T04:05:44.371Z,94.67
2023-08-21T04:09:47.017Z,96.12
2023-08-21T04:13:49.691Z,97.91
2023-08-21T04:17:52.378Z,94.34
2023-08-21T04:21:56.464Z,94.42
2023-08-21T04:26:02.625Z,96.50
2023-08-21T04:30:06.838Z,96.65
2023-08-21T04:34:09.478Z,94.58
2023-08-21T04:38:13.475Z,91.52
2023-08-21T04:42:17.035Z,95.45
2023-08-21T04:46:20.976Z,95.30
2023-08-21T04:50:23.789Z,94.26
2023-08-21T04:54:27.771Z,94.85
2023-08-21T04:58:30.440Z,94.34
2023-08-21T05:02:33.129Z,93.92
2023-08-21T05:06:35.821Z,97.71
2023-08-21T05:10:39.811Z,97.55
2023-08-21T05:14:42.465Z,96.99
2023-08-21T05:18:46.026Z,96.78
2023-08-21T05:22:48.693Z,95.52
2023-08-21T05:26:52.779Z,94.70
2023-08-21T05:30:55.447Z,93.68
2023-08-21T05:34:58.554Z,93.42
2023-08-21T05:39:06.864Z,93.20
2023-08-21T05:43:10.998Z,92.84
2023-08-21T05:47:13.733Z,93.04
2023-08-21T05:51:16.376Z,96.57
2023-08-21T05:55:20.092Z,93.28
2023-08-21T05:59:32.678Z,91.80
2023-08-21T06:03:35.467Z,90.90
2023-08-21T06:07:38.535Z,89.96
2023-08-21T06:11:41.206Z,89.14
2023-08-21T06:15:47.085Z,87.88
2023-08-21T06:19:50.013Z,88.21
2023-08-21T06:23:52.733Z,90.96
2023-08-21T06:27:59.169Z,88.54
2023-08-21T06:32:04.288Z,85.36
2023-08-21T06:36:07.522Z,84.69
2023-08-21T06:40:12.280Z,84.95
2023-08-21T06:44:15.373Z,84.30
2023-08-21T06:48:19.656Z,83.32
2023-08-21T06:52:22.313Z,81.65
2023-08-21T06:56:25.176Z,81.41
2023-08-21T07:00:28.073Z,81.65
2023-08-21T07:04:34.152Z,81.13
2023-08-21T07:08:36.858Z,82.00
2023-08-21T07:12:39.735Z,80.96
2023-08-21T07:16:42.697Z,79.51
2023-08-21T07:20:48.728Z,78.24
2023-08-21T07:24:51.375Z,77.44
2023-08-21T07:28:54.339Z,76.78
2023-08-21T07:32:58.005Z,75.54
2023-08-21T07:37:02.078Z,73.04
2023-08-21T07:41:06.549Z,72.83
2023-08-21T07:45:10.308Z,68.68
2023-08-21T07:49:12.971Z,69.55
2023-08-21T07:53:16.978Z,69.35
2023-08-21T07:57:19.676Z,66.73
2023-08-21T08:01:22.492Z,64.24
2023-08-21T08:05:25.220Z,63.19
2023-08-21T08:09:29.304Z,62.79
2023-08-21T08:13:32.230Z,60.01
2023-08-21T08:17:35.041Z,58.03
2023-08-21T08:21:37.896Z,57.11
2023-08-21T08:25:42.008Z,56.20
2023-08-21T08:29:44.941Z,56.06
2023-08-21T08:33:49.008Z,54.52
2023-08-21T08:37:51.927Z,54.92
2023-08-21T08:42:01.565Z,54.40
2023-08-21T08:46:05.578Z,53.54
2023-08-21T08:50:10.206Z,53.45
2023-08-21T08:54:14.832Z,54.83
2023-08-21T08:58:18.983Z,53.54
2023-08-21T09:02:21.637Z,51.79
2023-08-21T09:06:24.991Z,50.92
2023-08-21T09:10:27.942Z,53.41
2023-08-21T09:14:32.001Z,52.16
2023-08-21T09:18:38.193Z,53.63
2023-08-21T09:22:42.100Z,51.64
2023-08-21T09:26:44.958Z,52.83
2023-08-21T09:30:51.580Z,52.67
2023-08-21T09:34:54.280Z,51.99
2023-08-21T09:38:57.014Z,50.59
2023-08-21T09:43:00.231Z,51.15
2023-08-21T09:47:04.770Z,50.65
2023-08-21T09:51:07.962Z,49.61
2023-08-21T09:55:11.890Z,46.37
2023-08-21T09:59:15.187Z,48.94
2023-08-21T10:03:23.010Z,45.43
2023-08-21T10:07:29.883Z,47.79
2023-08-21T10:11:33.199Z,45.05
2023-08-21T10:15:36.878Z,42.91
2023-08-21T10:19:41.033Z,42.70
2023-08-21T10:23:46.555Z,46.77
2023-08-21T10:27:52.308Z,46.59
2023-08-21T10:32:01.808Z,44.50
2023-08-21T10:36:06.575Z,44.97
2023-08-21T10:40:26.111Z,46.58
2023-08-21T10:44:50.036Z,43.84
2023-08-21T10:48:52.984Z,43.76
2023-08-21T10:52:57.963Z,44.95
2023-08-21T10:57:04.380Z,43.55
2023-08-21T11:01:07.096Z,39.31
2023-08-21T11:05:11.090Z,42.72
2023-08-21T11:09:18.401Z,39.48
2023-08-21T11:13:22.873Z,41.56
2023-08-21T11:17:25.624Z,39.39
2023-08-21T11:21:28.860Z,42.20
2023-08-21T11:25:33.182Z,39.50
2023-08-21T11:29:38.548Z,40.45
2023-08-21T11:33:41.252Z,36.55
2023-08-21T11:37:47.026Z,37.00
2023-08-21T11:41:57.820Z,37.56
2023-08-21T11:46:00.600Z,35.60
2023-08-21T11:50:07.853Z,35.83
2023-08-21T11:54:11.198Z,35.03
2023-08-21T11:58:20.066Z,36.38
2023-08-21T12:02:26.157Z,35.35
2023-08-21T12:06:33.398Z,35.50
2023-08-21T12:10:36.217Z,33.19
2023-08-21T12:14:40.801Z,32.36
2023-08-21T12:18:43.870Z,33.15
2023-08-21T12:22:46.586Z,34.40
2023-08-21T12:26:51.082Z,34.10
2023-08-21T12:30:55.605Z,32.53
2023-08-21T12:34:58.274Z,35.92
2023-08-21T12:39:00.956Z,34.65
2023-08-21T12:43:03.727Z,35.29
2023-08-21T12:47:08.119Z,34.79
2023-08-21T12:51:11.068Z,34.50
2023-08-21T12:55:14.989Z,33.56
2023-08-21T12:59:19.303Z,34.09
2023-08-21T13:03:25.912Z,35.39
2023-08-21T13:07:29.779Z,33.39
2023-08-21T13:11:32.609Z,32.32
2023-08-21T13:15:35.355Z,31.33
2023-08-21T13:19:39.419Z,32.30
2023-08-21T13:23:42.560Z,32.04
2023-08-21T13:27:45.701Z,32.01
2023-08-21T13:31:48.395Z,29.88
2023-08-21T13:35:52.425Z,30.54
2023-08-21T13:39:56.867Z,31.04
2023-08-21T13:44:00.158Z,30.22
2023-08-21T13:48:04.353Z,29.64
2023-08-21T13:52:08.302Z,29.85
2023-08-21T13:56:10.984Z,30.34
2023-08-21T14:00:14.512Z,30.50
2023-08-21T14:04:17.329Z,30.44
2023-08-21T14:08:22.347Z,30.33
2023-08-21T14:12:25.101Z,31.79
2023-08-21T14:16:27.803Z,30.86
2023-08-21T14:20:30.516Z,30.97
2023-08-21T14:24:34.642Z,33.13
2023-08-21T14:28:37.130Z,36.61
2023-08-21T14:32:39.875Z,35.87
2023-08-21T14:36:42.568Z,36.58
2023-08-21T14:40:46.587Z,36.33
2023-08-21T14:44:49.241Z,34.42
2023-08-21T14:48:51.912Z,35.27
2023-08-21T14:52:54.840Z,34.14
2023-08-21T14:56:58.901Z,33.59
2023-08-21T15:01:01.610Z,34.87
2023-08-21T15:05:06.332Z,35.66
2023-08-21T15:09:09.268Z,36.28
2023-08-21T15:13:13.253Z,38.01
2023-08-21T15:17:19.301Z,38.08
2023-08-21T15:21:22.765Z,38.11
2023-08-21T15:25:25.647Z,38.32
2023-08-21T15:29:29.664Z,37.95
2023-08-21T15:33:32.365Z,38.21
2023-08-21T15:37:35.072Z,38.31
2023-08-21T15:41:37.881Z,39.20
2023-08-21T15:45:44.219Z,39.44
2023-08-21T15:49:49.007Z,37.61
2023-08-21T15:53:51.759Z,37.79
2023-08-21T15:57:54.555Z,40.25
2023-08-21T16:02:00.548Z,40.43
2023-08-21T16:06:04.333Z,42.55
2023-08-21T16:10:08.129Z,41.10
2023-08-21T16:14:10.881Z,40.17
2023-08-21T16:18:14.921Z,40.24
2023-08-21T16:22:17.645Z,38.32
2023-08-21T16:26:20.354Z,38.04
2023-08-21T16:30:23.337Z,34.72
2023-08-21T16:34:27.375Z,35.68
2023-08-21T16:38:30.163Z,35.68
2023-08-21T16:42:32.861Z,37.78
2023-08-21T16:46:37.407Z,37.13
2023-08-21T16:50:41.452Z,37.20
2023-08-21T16:54:44.140Z,38.37
2023-08-21T16:58:46.799Z,38.76
2023-08-21T17:02:49.490Z,38.81
2023-08-21T17:06:53.518Z,38.85
2023-08-21T17:10:56.172Z,39.16
2023-08-21T17:15:00.424Z,39.65
2023-08-21T17:19:05.321Z,39.90
2023-08-21T17:23:09.385Z,41.11
2023-08-21T17:27:12.071Z,41.63
2023-08-21T17:31:14.766Z,43.15
2023-08-21T17:35:17.521Z,43.52
2023-08-21T17:39:21.579Z,44.42
2023-08-21T17:43:24.244Z,45.28
2023-08-21T17:47:26.949Z,46.62
2023-08-21T17:51:29.696Z,47.42
2023-08-21T17:55:33.833Z,47.77
2023-08-21T17:59:36.620Z,49.08
2023-08-21T18:03:39.772Z,49.92
2023-08-21T18:07:42.776Z,50.88
2023-08-21T18:11:47.196Z,51.97
2023-08-21T18:15:50.339Z,53.06
2023-08-21T18:19:53.053Z,53.57
2023-08-21T18:23:55.777Z,53.98
2023-08-21T18:27:59.864Z,54.69
2023-08-21T18:32:03.001Z,54.98
2023-08-21T18:36:06.187Z,55.02
2023-08-21T18:40:10.357Z,54.82
2023-08-21T18:44:14.353Z,54.82
2023-08-21T18:48:17.795Z,54.88
2023-08-21T18:52:20.506Z,55.22
2023-08-21T18:56:23.943Z,55.95
2023-08-21T19:00:28.037Z,56.86
2023-08-21T19:04:32.597Z,56.20
2023-08-21T19:08:35.119Z,56.54
2023-08-21T19:12:37.773Z,57.20
2023-08-21T19:16:41.834Z,56.77
2023-08-21T19:20:44.515Z,58.24
2023-08-21T19:24:47.251Z,57.85
2023-08-21T19:28:50.094Z,58.48
2023-08-21T19:32:54.076Z,58.45
2023-08-21T19:36:56.799Z,59.12
2023-08-21T19:40:59.485Z,59.77
2023-08-21T19:45:02.207Z,60.24
2023-08-21T19:49:06.255Z,60.27
2023-08-21T19:53:08.909Z,60.86
2023-08-21T19:57:11.585Z,61.40
2023-08-21T20:01:14.322Z,61.65
2023-08-21T20:05:18.487Z,62.73
2023-08-21T20:09:21.189Z,63.66
2023-08-21T20:13:23.939Z,64.88
2023-08-21T20:17:29.586Z,65.68
2023-08-21T20:21:34.727Z,67.94
2023-08-21T20:25:37.438Z,68.82
2023-08-21T20:29:40.395Z,69.73
2023-08-21T20:33:43.208Z,70.29
2023-08-21T20:37:47.253Z,69.45
2023-08-21T20:41:49.983Z,69.60
2023-08-21T20:45:52.639Z,69.31
2023-08-21T20:49:55.276Z,69.88
2023-08-21T20:53:59.296Z,69.79
2023-08-21T20:58:01.961Z,70.32
2023-08-21T21:02:04.759Z,70.97
2023-08-21T21:06:07.737Z,70.73
2023-08-21T21:10:12.313Z,70.71
2023-08-21T21:14:15.746Z,71.57
2023-08-21T21:18:18.435Z,72.98
2023-08-21T21:22:21.113Z,73.10
2023-08-21T21:26:25.082Z,73.08
2023-08-21T21:30:27.732Z,74.09
2023-08-21T21:34:30.355Z,74.72
2023-08-21T21:38:33.080Z,74.37
2023-08-21T21:42:37.077Z,75.25
2023-08-21T21:46:40.747Z,74.78
2023-08-21T21:50:43.420Z,74.53
2023-08-21T21:54:46.104Z,75.19
2023-08-21T21:58:51.280Z,76.52
2023-08-21T22:02:54.327Z,77.07
2023-08-21T22:06:57.106Z,77.55
2023-08-21T22:11:05.606Z,78.36
2023-08-21T22:15:12.506Z,78.81
2023-08-21T22:19:17.758Z,79.61
2023-08-21T22:23:20.794Z,79.27
2023-08-21T22:27:23.717Z,78.32
2023-08-21T22:31:39.634Z,78.64
2023-08-21T22:35:44.656Z,79.02
2023-08-21T22:39:47.331Z,79.39
2023-08-21T22:43:49.971Z,79.47
2023-08-21T22:47:54.095Z,79.21
2023-08-21T22:51:56.776Z,79.80
2023-08-21T22:55:59.420Z,79.75
2023-08-21T23:00:02.089Z,80.56
2023-08-21T23:04:06.190Z,81.59
2023-08-21T23:08:09.167Z,81.48
2023-08-21T23:12:12.869Z,81.37
2023-08-21T23:16:16.233Z,81.72
2023-08-21T23:20:21.411Z,81.06
2023-08-21T23:24:24.113Z,81.63
2023-08-21T23:28:26.884Z,81.13
2023-08-21T23:32:29.905Z,81.61
2023-08-21T23:36:33.944Z,82.16
2023-08-21T23:40:37.641Z,82.33
2023-08-21T23:44:40.328Z,83.11
2023-08-21T23:48:44.190Z,83.13
2023-08-21T23:52:48.326Z,84.65
2023-08-21T23:56:51.081Z,85.16
